sensor_id;sensor_type;location;lat;lon;timestamp;P1;durP1;ratioP1;P2;durP2;ratioP2
40122;SDS011;25832;45.490;4.912;2023-04-24T00:01:48;3.25;;;1.83;;
40122;SDS011;25832;45.490;4.912;2023-04-24T00:04:13;1.77;;;1.23;;
40122;SDS011;25832;45.490;4.912;2023-04-24T00:06:41;3.47;;;1.48;;
40122;SDS011;25832;45.490;4.912;2023-04-24T00:09:08;4.70;;;1.30;;
40122;SDS011;25832;45.490;4.912;2023-04-24T00:11:35;2.05;;;1.10;;
40122;SDS011;25832;45.490;4.912;2023-04-24T00:14:01;3.10;;;1.30;;
40122;SDS011;25832;45.490;4.912;2023-04-24T00:16:27;4.72;;;1.30;;
40122;SDS011;25832;45.490;4.912;2023-04-24T00:18:54;4.78;;;1.10;;
40122;SDS011;25832;45.490;4.912;2023-04-24T00:21:19;7.65;;;1.27;;
40122;SDS011;25832;45.490;4.912;2023-04-24T00:23:46;1.60;;;0.98;;
40122;SDS011;25832;45.490;4.912;2023-04-24T00:26:13;4.18;;;1.45;;
40122;SDS011;25832;45.490;4.912;2023-04-24T00:28:38;2.25;;;0.93;;
40122;SDS011;25832;45.490;4.912;2023-04-24T00:31:04;1.30;;;1.10;;
40122;SDS011;25832;45.490;4.912;2023-04-24T00:33:30;2.10;;;1.25;;
40122;SDS011;25832;45.490;4.912;2023-04-24T00:35:56;3.10;;;1.20;;
40122;SDS011;25832;45.490;4.912;2023-04-24T00:38:21;2.15;;;1.23;;
40122;SDS011;25832;45.490;4.912;2023-04-24T00:40:47;3.72;;;1.88;;
40122;SDS011;25832;45.490;4.912;2023-04-24T00:43:15;9.32;;;2.25;;
40122;SDS011;25832;45.490;4.912;2023-04-24T00:45:41;3.38;;;1.30;;
40122;SDS011;25832;45.490;4.912;2023-04-24T00:48:07;3.60;;;1.35;;
40122;SDS011;25832;45.490;4.912;2023-04-24T00:50:33;3.90;;;1.10;;
40122;SDS011;25832;45.490;4.912;2023-04-24T00:53:00;2.60;;;1.10;;
40122;SDS011;25832;45.490;4.912;2023-04-24T00:55:26;5.35;;;1.42;;
40122;SDS011;25832;45.490;4.912;2023-04-24T00:57:52;4.72;;;1.50;;
40122;SDS011;25832;45.490;4.912;2023-04-24T01:00:18;4.35;;;1.17;;
40122;SDS011;25832;45.490;4.912;2023-04-24T01:02:44;3.40;;;1.33;;
40122;SDS011;25832;45.490;4.912;2023-04-24T01:05:14;1.75;;;0.90;;
40122;SDS011;25832;45.490;4.912;2023-04-24T01:07:40;3.75;;;1.48;;
40122;SDS011;25832;45.490;4.912;2023-04-24T01:10:10;4.45;;;1.63;;
40122;SDS011;25832;45.490;4.912;2023-04-24T01:12:37;3.28;;;1.33;;
40122;SDS011;25832;45.490;4.912;2023-04-24T01:15:03;2.67;;;1.05;;
40122;SDS011;25832;45.490;4.912;2023-04-24T01:17:31;6.35;;;1.30;;
40122;SDS011;25832;45.490;4.912;2023-04-24T01:19:57;6.88;;;1.30;;
40122;SDS011;25832;45.490;4.912;2023-04-24T01:22:25;3.13;;;1.45;;
40122;SDS011;25832;45.490;4.912;2023-04-24T01:24:51;5.47;;;1.35;;
40122;SDS011;25832;45.490;4.912;2023-04-24T01:27:18;5.50;;;1.13;;
40122;SDS011;25832;45.490;4.912;2023-04-24T01:29:44;4.20;;;1.38;;
40122;SDS011;25832;45.490;4.912;2023-04-24T01:32:12;6.45;;;1.50;;
40122;SDS011;25832;45.490;4.912;2023-04-24T01:34:38;4.68;;;1.75;;
40122;SDS011;25832;45.490;4.912;2023-04-24T01:37:04;2.92;;;1.10;;
40122;SDS011;25832;45.490;4.912;2023-04-24T01:39:30;5.40;;;1.10;;
40122;SDS011;25832;45.490;4.912;2023-04-24T01:41:56;3.75;;;1.35;;
40122;SDS011;25832;45.490;4.912;2023-04-24T01:44:22;2.42;;;1.30;;
40122;SDS011;25832;45.490;4.912;2023-04-24T01:46:48;2.28;;;1.50;;
40122;SDS011;25832;45.490;4.912;2023-04-24T01:49:14;2.38;;;1.20;;
40122;SDS011;25832;45.490;4.912;2023-04-24T01:51:40;4.78;;;2.10;;
40122;SDS011;25832;45.490;4.912;2023-04-24T01:54:06;4.55;;;1.60;;
40122;SDS011;25832;45.490;4.912;2023-04-24T01:56:33;3.70;;;1.20;;
40122;SDS011;25832;45.490;4.912;2023-04-24T01:59:02;2.95;;;1.27;;
40122;SDS011;25832;45.490;4.912;2023-04-24T02:01:32;7.60;;;1.50;;
40122;SDS011;25832;45.490;4.912;2023-04-24T02:04:02;4.40;;;1.15;;
40122;SDS011;25832;45.490;4.912;2023-04-24T02:06:28;5.82;;;1.10;;
40122;SDS011;25832;45.490;4.912;2023-04-24T02:08:54;1.55;;;0.90;;
40122;SDS011;25832;45.490;4.912;2023-04-24T02:11:19;3.70;;;1.30;;
40122;SDS011;25832;45.490;4.912;2023-04-24T02:13:45;2.13;;;0.88;;
40122;SDS011;25832;45.490;4.912;2023-04-24T02:16:11;5.90;;;1.20;;
40122;SDS011;25832;45.490;4.912;2023-04-24T02:18:36;2.78;;;1.33;;
40122;SDS011;25832;45.490;4.912;2023-04-24T02:21:02;4.13;;;2.15;;
40122;SDS011;25832;45.490;4.912;2023-04-24T02:23:28;9.02;;;1.38;;
40122;SDS011;25832;45.490;4.912;2023-04-24T02:25:53;3.17;;;1.02;;
40122;SDS011;25832;45.490;4.912;2023-04-24T02:28:19;3.47;;;1.02;;
40122;SDS011;25832;45.490;4.912;2023-04-24T02:30:45;1.52;;;1.10;;
40122;SDS011;25832;45.490;4.912;2023-04-24T02:33:11;3.97;;;1.20;;
40122;SDS011;25832;45.490;4.912;2023-04-24T02:35:36;3.88;;;1.17;;
40122;SDS011;25832;45.490;4.912;2023-04-24T02:38:03;3.70;;;1.10;;
40122;SDS011;25832;45.490;4.912;2023-04-24T02:40:29;1.60;;;0.80;;
40122;SDS011;25832;45.490;4.912;2023-04-24T02:42:54;2.08;;;1.20;;
40122;SDS011;25832;45.490;4.912;2023-04-24T02:45:20;5.63;;;1.23;;
40122;SDS011;25832;45.490;4.912;2023-04-24T02:47:46;2.95;;;1.48;;
40122;SDS011;25832;45.490;4.912;2023-04-24T02:50:11;3.20;;;1.40;;
40122;SDS011;25832;45.490;4.912;2023-04-24T02:52:37;2.33;;;0.95;;
40122;SDS011;25832;45.490;4.912;2023-04-24T02:55:03;3.33;;;1.15;;
40122;SDS011;25832;45.490;4.912;2023-04-24T02:57:30;3.75;;;1.45;;
40122;SDS011;25832;45.490;4.912;2023-04-24T02:59:55;4.45;;;1.10;;
40122;SDS011;25832;45.490;4.912;2023-04-24T03:02:21;5.10;;;1.33;;
40122;SDS011;25832;45.490;4.912;2023-04-24T03:04:46;3.08;;;1.60;;
40122;SDS011;25832;45.490;4.912;2023-04-24T03:07:15;3.83;;;1.30;;
40122;SDS011;25832;45.490;4.912;2023-04-24T03:09:41;5.78;;;1.17;;
40122;SDS011;25832;45.490;4.912;2023-04-24T03:12:06;3.45;;;1.10;;
40122;SDS011;25832;45.490;4.912;2023-04-24T03:14:32;4.32;;;1.10;;
40122;SDS011;25832;45.490;4.912;2023-04-24T03:16:58;3.05;;;1.45;;
40122;SDS011;25832;45.490;4.912;2023-04-24T03:19:24;2.88;;;1.02;;
40122;SDS011;25832;45.490;4.912;2023-04-24T03:21:49;3.53;;;1.30;;
40122;SDS011;25832;45.490;4.912;2023-04-24T03:24:15;4.60;;;1.25;;
40122;SDS011;25832;45.490;4.912;2023-04-24T03:26:41;1.80;;;0.90;;
40122;SDS011;25832;45.490;4.912;2023-04-24T03:29:07;5.20;;;1.17;;
40122;SDS011;25832;45.490;4.912;2023-04-24T03:31:32;3.55;;;1.40;;
40122;SDS011;25832;45.490;4.912;2023-04-24T03:33:58;5.30;;;1.30;;
40122;SDS011;25832;45.490;4.912;2023-04-24T03:36:24;3.28;;;1.13;;
40122;SDS011;25832;45.490;4.912;2023-04-24T03:38:51;7.53;;;1.38;;
40122;SDS011;25832;45.490;4.912;2023-04-24T03:41:16;2.55;;;1.42;;
40122;SDS011;25832;45.490;4.912;2023-04-24T03:43:42;4.43;;;1.45;;
40122;SDS011;25832;45.490;4.912;2023-04-24T03:46:08;5.68;;;1.67;;
40122;SDS011;25832;45.490;4.912;2023-04-24T03:48:34;6.28;;;1.50;;
40122;SDS011;25832;45.490;4.912;2023-04-24T03:51:00;2.42;;;1.13;;
40122;SDS011;25832;45.490;4.912;2023-04-24T03:53:25;2.97;;;1.17;;
40122;SDS011;25832;45.490;4.912;2023-04-24T03:55:52;3.75;;;1.30;;
40122;SDS011;25832;45.490;4.912;2023-04-24T03:58:18;5.30;;;1.40;;
40122;SDS011;25832;45.490;4.912;2023-04-24T04:00:44;2.08;;;1.20;;
40122;SDS011;25832;45.490;4.912;2023-04-24T04:03:11;4.18;;;1.30;;
40122;SDS011;25832;45.490;4.912;2023-04-24T04:05:38;2.88;;;1.40;;
40122;SDS011;25832;45.490;4.912;2023-04-24T04:08:04;2.55;;;1.20;;
40122;SDS011;25832;45.490;4.912;2023-04-24T04:10:30;2.95;;;1.13;;
40122;SDS011;25832;45.490;4.912;2023-04-24T04:12:56;1.80;;;1.30;;
40122;SDS011;25832;45.490;4.912;2023-04-24T04:15:21;6.57;;;1.20;;
40122;SDS011;25832;45.490;4.912;2023-04-24T04:17:47;2.45;;;1.35;;
40122;SDS011;25832;45.490;4.912;2023-04-24T04:20:13;5.25;;;1.60;;
40122;SDS011;25832;45.490;4.912;2023-04-24T04:22:38;3.90;;;2.00;;
40122;SDS011;25832;45.490;4.912;2023-04-24T04:25:04;2.42;;;1.63;;
40122;SDS011;25832;45.490;4.912;2023-04-24T04:27:30;11.60;;;3.47;;
40122;SDS011;25832;45.490;4.912;2023-04-24T04:29:59;6.70;;;4.47;;
40122;SDS011;25832;45.490;4.912;2023-04-24T04:32:32;7.35;;;5.05;;
40122;SDS011;25832;45.490;4.912;2023-04-24T04:34:59;7.03;;;3.95;;
40122;SDS011;25832;45.490;4.912;2023-04-24T04:37:29;7.82;;;4.97;;
40122;SDS011;25832;45.490;4.912;2023-04-24T04:39:56;7.38;;;5.00;;
40122;SDS011;25832;45.490;4.912;2023-04-24T04:42:23;9.05;;;4.88;;
40122;SDS011;25832;45.490;4.912;2023-04-24T04:44:49;6.22;;;4.85;;
40122;SDS011;25832;45.490;4.912;2023-04-24T04:47:15;7.03;;;4.88;;
40122;SDS011;25832;45.490;4.912;2023-04-24T04:49:42;10.25;;;5.68;;
40122;SDS011;25832;45.490;4.912;2023-04-24T04:52:08;7.20;;;4.95;;
40122;SDS011;25832;45.490;4.912;2023-04-24T04:54:34;8.95;;;4.80;;
40122;SDS011;25832;45.490;4.912;2023-04-24T04:57:00;6.28;;;4.97;;
40122;SDS011;25832;45.490;4.912;2023-04-24T04:59:26;9.65;;;4.63;;
40122;SDS011;25832;45.490;4.912;2023-04-24T05:01:52;13.50;;;5.70;;
40122;SDS011;25832;45.490;4.912;2023-04-24T05:04:18;6.68;;;5.07;;
40122;SDS011;25832;45.490;4.912;2023-04-24T05:06:43;9.52;;;5.97;;
40122;SDS011;25832;45.490;4.912;2023-04-24T05:09:09;7.57;;;5.55;;
40122;SDS011;25832;45.490;4.912;2023-04-24T05:11:35;11.68;;;5.63;;
40122;SDS011;25832;45.490;4.912;2023-04-24T05:14:01;11.15;;;6.10;;
40122;SDS011;25832;45.490;4.912;2023-04-24T05:16:26;9.48;;;5.13;;
40122;SDS011;25832;45.490;4.912;2023-04-24T05:18:52;9.88;;;5.57;;
40122;SDS011;25832;45.490;4.912;2023-04-24T05:21:18;10.73;;;5.78;;
40122;SDS011;25832;45.490;4.912;2023-04-24T05:23:43;12.50;;;5.38;;
40122;SDS011;25832;45.490;4.912;2023-04-24T05:26:09;8.48;;;5.40;;
40122;SDS011;25832;45.490;4.912;2023-04-24T05:28:35;11.88;;;5.20;;
40122;SDS011;25832;45.490;4.912;2023-04-24T05:31:01;6.65;;;4.70;;
40122;SDS011;25832;45.490;4.912;2023-04-24T05:33:27;6.47;;;4.78;;
40122;SDS011;25832;45.490;4.912;2023-04-24T05:35:53;8.60;;;4.90;;
40122;SDS011;25832;45.490;4.912;2023-04-24T05:38:19;11.32;;;4.80;;
40122;SDS011;25832;45.490;4.912;2023-04-24T05:40:45;9.40;;;4.15;;
40122;SDS011;25832;45.490;4.912;2023-04-24T05:43:11;10.13;;;4.90;;
40122;SDS011;25832;45.490;4.912;2023-04-24T05:45:37;9.70;;;5.30;;
40122;SDS011;25832;45.490;4.912;2023-04-24T05:48:03;7.10;;;4.90;;
40122;SDS011;25832;45.490;4.912;2023-04-24T05:50:29;10.00;;;4.95;;
40122;SDS011;25832;45.490;4.912;2023-04-24T05:52:55;6.47;;;4.68;;
40122;SDS011;25832;45.490;4.912;2023-04-24T05:55:23;5.93;;;4.30;;
40122;SDS011;25832;45.490;4.912;2023-04-24T05:57:50;7.82;;;4.63;;
40122;SDS011;25832;45.490;4.912;2023-04-24T06:00:15;8.25;;;3.70;;
40122;SDS011;25832;45.490;4.912;2023-04-24T06:02:42;7.70;;;3.92;;
40122;SDS011;25832;45.490;4.912;2023-04-24T06:05:08;8.48;;;4.53;;
40122;SDS011;25832;45.490;4.912;2023-04-24T06:07:34;5.53;;;3.00;;
40122;SDS011;25832;45.490;4.912;2023-04-24T06:10:00;5.60;;;2.50;;
40122;SDS011;25832;45.490;4.912;2023-04-24T06:12:26;7.53;;;2.70;;
40122;SDS011;25832;45.490;4.912;2023-04-24T06:14:52;11.82;;;2.58;;
40122;SDS011;25832;45.490;4.912;2023-04-24T06:17:19;7.00;;;2.22;;
40122;SDS011;25832;45.490;4.912;2023-04-24T06:19:44;5.80;;;2.40;;
40122;SDS011;25832;45.490;4.912;2023-04-24T06:22:10;6.00;;;2.10;;
40122;SDS011;25832;45.490;4.912;2023-04-24T06:24:36;3.97;;;2.13;;
40122;SDS011;25832;45.490;4.912;2023-04-24T06:27:01;5.18;;;2.58;;
40122;SDS011;25832;45.490;4.912;2023-04-24T06:29:27;4.80;;;1.83;;
40122;SDS011;25832;45.490;4.912;2023-04-24T06:31:53;5.72;;;2.13;;
40122;SDS011;25832;45.490;4.912;2023-04-24T06:34:18;6.20;;;2.63;;
40122;SDS011;25832;45.490;4.912;2023-04-24T06:36:44;4.10;;;2.03;;
40122;SDS011;25832;45.490;4.912;2023-04-24T06:39:11;5.57;;;1.60;;
40122;SDS011;25832;45.490;4.912;2023-04-24T06:41:37;3.38;;;1.67;;
40122;SDS011;25832;45.490;4.912;2023-04-24T06:44:02;4.35;;;1.70;;
40122;SDS011;25832;45.490;4.912;2023-04-24T06:46:28;2.85;;;1.48;;
40122;SDS011;25832;45.490;4.912;2023-04-24T06:48:54;4.13;;;1.45;;
40122;SDS011;25832;45.490;4.912;2023-04-24T06:51:23;3.28;;;1.65;;
40122;SDS011;25832;45.490;4.912;2023-04-24T06:53:50;3.88;;;1.65;;
40122;SDS011;25832;45.490;4.912;2023-04-24T06:56:16;3.88;;;1.85;;
40122;SDS011;25832;45.490;4.912;2023-04-24T06:58:42;4.50;;;1.55;;
40122;SDS011;25832;45.490;4.912;2023-04-24T07:01:08;3.22;;;1.52;;
40122;SDS011;25832;45.490;4.912;2023-04-24T07:03:35;1.42;;;1.13;;
40122;SDS011;25832;45.490;4.912;2023-04-24T07:06:00;3.17;;;1.55;;
40122;SDS011;25832;45.490;4.912;2023-04-24T07:08:28;4.40;;;2.25;;
40122;SDS011;25832;45.490;4.912;2023-04-24T07:10:55;2.95;;;1.50;;
40122;SDS011;25832;45.490;4.912;2023-04-24T07:13:22;4.32;;;1.63;;
40122;SDS011;25832;45.490;4.912;2023-04-24T07:15:48;3.78;;;1.75;;
40122;SDS011;25832;45.490;4.912;2023-04-24T07:18:19;5.57;;;2.10;;
40122;SDS011;25832;45.490;4.912;2023-04-24T07:20:45;3.65;;;1.98;;
40122;SDS011;25832;45.490;4.912;2023-04-24T07:23:11;12.30;;;2.80;;
40122;SDS011;25832;45.490;4.912;2023-04-24T07:25:36;4.68;;;2.00;;
40122;SDS011;25832;45.490;4.912;2023-04-24T07:28:03;4.05;;;1.95;;
40122;SDS011;25832;45.490;4.912;2023-04-24T07:30:29;5.20;;;3.05;;
40122;SDS011;25832;45.490;4.912;2023-04-24T07:32:57;3.47;;;1.70;;
40122;SDS011;25832;45.490;4.912;2023-04-24T07:35:23;3.55;;;2.03;;
40122;SDS011;25832;45.490;4.912;2023-04-24T07:37:50;6.93;;;2.53;;
40122;SDS011;25832;45.490;4.912;2023-04-24T07:40:17;3.22;;;2.00;;
40122;SDS011;25832;45.490;4.912;2023-04-24T07:42:43;5.68;;;2.35;;
40122;SDS011;25832;45.490;4.912;2023-04-24T07:45:09;6.55;;;3.60;;
40122;SDS011;25832;45.490;4.912;2023-04-24T07:47:35;8.40;;;2.40;;
40122;SDS011;25832;45.490;4.912;2023-04-24T07:50:02;3.83;;;2.33;;
40122;SDS011;25832;45.490;4.912;2023-04-24T07:52:28;3.65;;;1.95;;
40122;SDS011;25832;45.490;4.912;2023-04-24T07:54:54;5.80;;;2.45;;
40122;SDS011;25832;45.490;4.912;2023-04-24T07:57:23;5.20;;;1.73;;
40122;SDS011;25832;45.490;4.912;2023-04-24T07:59:50;3.67;;;2.10;;
40122;SDS011;25832;45.490;4.912;2023-04-24T08:02:15;6.65;;;2.75;;
40122;SDS011;25832;45.490;4.912;2023-04-24T08:04:41;7.93;;;2.60;;
40122;SDS011;25832;45.490;4.912;2023-04-24T08:07:07;3.35;;;1.83;;
40122;SDS011;25832;45.490;4.912;2023-04-24T08:09:33;2.50;;;1.80;;
40122;SDS011;25832;45.490;4.912;2023-04-24T08:11:59;5.07;;;1.70;;
40122;SDS011;25832;45.490;4.912;2023-04-24T08:14:24;6.35;;;2.33;;
40122;SDS011;25832;45.490;4.912;2023-04-24T08:16:50;3.40;;;1.88;;
40122;SDS011;25832;45.490;4.912;2023-04-24T08:19:18;4.45;;;2.20;;
40122;SDS011;25832;45.490;4.912;2023-04-24T08:21:44;3.40;;;1.83;;
40122;SDS011;25832;45.490;4.912;2023-04-24T08:24:10;4.78;;;2.22;;
40122;SDS011;25832;45.490;4.912;2023-04-24T08:26:35;3.53;;;2.00;;
40122;SDS011;25832;45.490;4.912;2023-04-24T08:29:01;4.13;;;2.13;;
40122;SDS011;25832;45.490;4.912;2023-04-24T08:31:27;5.38;;;1.83;;
40122;SDS011;25832;45.490;4.912;2023-04-24T08:33:52;4.28;;;2.05;;
40122;SDS011;25832;45.490;4.912;2023-04-24T08:36:18;3.90;;;2.25;;
40122;SDS011;25832;45.490;4.912;2023-04-24T08:38:44;6.43;;;2.10;;
40122;SDS011;25832;45.490;4.912;2023-04-24T08:41:11;4.82;;;2.78;;
40122;SDS011;25832;45.490;4.912;2023-04-24T08:43:39;8.35;;;2.50;;
40122;SDS011;25832;45.490;4.912;2023-04-24T08:46:06;4.30;;;2.10;;
40122;SDS011;25832;45.490;4.912;2023-04-24T08:48:32;7.70;;;2.03;;
40122;SDS011;25832;45.490;4.912;2023-04-24T08:50:58;3.85;;;1.85;;
40122;SDS011;25832;45.490;4.912;2023-04-24T08:53:24;4.30;;;2.20;;
40122;SDS011;25832;45.490;4.912;2023-04-24T08:55:51;3.95;;;2.20;;
40122;SDS011;25832;45.490;4.912;2023-04-24T08:58:19;5.35;;;1.90;;
40122;SDS011;25832;45.490;4.912;2023-04-24T09:00:44;5.15;;;2.30;;
40122;SDS011;25832;45.490;4.912;2023-04-24T09:03:16;4.72;;;2.03;;
40122;SDS011;25832;45.490;4.912;2023-04-24T09:05:46;2.85;;;1.80;;
40122;SDS011;25832;45.490;4.912;2023-04-24T09:08:13;4.75;;;2.17;;
40122;SDS011;25832;45.490;4.912;2023-04-24T09:10:39;7.35;;;1.90;;
40122;SDS011;25832;45.490;4.912;2023-04-24T09:13:06;3.92;;;2.33;;
40122;SDS011;25832;45.490;4.912;2023-04-24T09:15:34;3.15;;;1.85;;
40122;SDS011;25832;45.490;4.912;2023-04-24T09:18:00;4.43;;;2.15;;
40122;SDS011;25832;45.490;4.912;2023-04-24T09:20:26;3.35;;;1.83;;
40122;SDS011;25832;45.490;4.912;2023-04-24T09:22:55;3.45;;;2.15;;
40122;SDS011;25832;45.490;4.912;2023-04-24T09:25:22;5.93;;;2.63;;
40122;SDS011;25832;45.490;4.912;2023-04-24T09:27:48;8.65;;;2.53;;
40122;SDS011;25832;45.490;4.912;2023-04-24T09:30:14;6.10;;;2.22;;
40122;SDS011;25832;45.490;4.912;2023-04-24T09:32:47;3.10;;;1.98;;
40122;SDS011;25832;45.490;4.912;2023-04-24T09:35:13;4.65;;;2.10;;
40122;SDS011;25832;45.490;4.912;2023-04-24T09:37:44;5.97;;;2.20;;
40122;SDS011;25832;45.490;4.912;2023-04-24T09:42:59;5.95;;;2.42;;
40122;SDS011;25832;45.490;4.912;2023-04-24T09:45:27;6.78;;;2.72;;
40122;SDS011;25832;45.490;4.912;2023-04-24T09:47:59;2.83;;;1.85;;
40122;SDS011;25832;45.490;4.912;2023-04-24T09:50:25;5.18;;;2.03;;
40122;SDS011;25832;45.490;4.912;2023-04-24T09:52:58;3.25;;;2.33;;
40122;SDS011;25832;45.490;4.912;2023-04-24T09:55:26;5.90;;;1.90;;
40122;SDS011;25832;45.490;4.912;2023-04-24T09:58:01;3.28;;;1.83;;
40122;SDS011;25832;45.490;4.912;2023-04-24T10:00:31;7.75;;;2.05;;
40122;SDS011;25832;45.490;4.912;2023-04-24T10:03:00;7.80;;;3.13;;
40122;SDS011;25832;45.490;4.912;2023-04-24T10:05:27;5.53;;;2.33;;
40122;SDS011;25832;45.490;4.912;2023-04-24T10:08:07;5.35;;;1.92;;
40122;SDS011;25832;45.490;4.912;2023-04-24T10:10:36;4.55;;;2.05;;
40122;SDS011;25832;45.490;4.912;2023-04-24T10:13:09;2.40;;;1.90;;
40122;SDS011;25832;45.490;4.912;2023-04-24T10:15:36;4.82;;;2.33;;
40122;SDS011;25832;45.490;4.912;2023-04-24T10:18:04;4.93;;;1.98;;
40122;SDS011;25832;45.490;4.912;2023-04-24T10:20:31;8.95;;;2.28;;
40122;SDS011;25832;45.490;4.912;2023-04-24T10:22:58;5.22;;;1.92;;
40122;SDS011;25832;45.490;4.912;2023-04-24T10:25:26;6.30;;;2.33;;
40122;SDS011;25832;45.490;4.912;2023-04-24T10:27:53;5.25;;;1.98;;
40122;SDS011;25832;45.490;4.912;2023-04-24T10:30:24;5.72;;;1.85;;
40122;SDS011;25832;45.490;4.912;2023-04-24T10:32:51;6.40;;;2.20;;
40122;SDS011;25832;45.490;4.912;2023-04-24T10:35:17;3.38;;;2.10;;
40122;SDS011;25832;45.490;4.912;2023-04-24T10:37:56;3.72;;;2.20;;
40122;SDS011;25832;45.490;4.912;2023-04-24T10:40:37;9.32;;;2.28;;
40122;SDS011;25832;45.490;4.912;2023-04-24T10:43:03;9.23;;;2.30;;
40122;SDS011;25832;45.490;4.912;2023-04-24T10:45:36;4.43;;;2.20;;
40122;SDS011;25832;45.490;4.912;2023-04-24T10:48:09;7.20;;;2.35;;
40122;SDS011;25832;45.490;4.912;2023-04-24T10:50:45;3.22;;;2.28;;
40122;SDS011;25832;45.490;4.912;2023-04-24T10:53:15;3.95;;;2.63;;
40122;SDS011;25832;45.490;4.912;2023-04-24T10:55:52;3.53;;;2.42;;
40122;SDS011;25832;45.490;4.912;2023-04-24T10:58:22;5.13;;;2.30;;
40122;SDS011;25832;45.490;4.912;2023-04-24T11:00:58;6.15;;;1.95;;
40122;SDS011;25832;45.490;4.912;2023-04-24T11:03:32;5.60;;;1.90;;
40122;SDS011;25832;45.490;4.912;2023-04-24T11:06:00;3.15;;;2.00;;
40122;SDS011;25832;45.490;4.912;2023-04-24T11:08:42;5.20;;;2.08;;
40122;SDS011;25832;45.490;4.912;2023-04-24T11:11:10;5.65;;;2.53;;
40122;SDS011;25832;45.490;4.912;2023-04-24T11:19:18;3.28;;;2.10;;
40122;SDS011;25832;45.490;4.912;2023-04-24T11:21:53;4.20;;;2.15;;
40122;SDS011;25832;45.490;4.912;2023-04-24T11:24:24;2.67;;;1.67;;
40122;SDS011;25832;45.490;4.912;2023-04-24T11:29:43;3.90;;;1.90;;
40122;SDS011;25832;45.490;4.912;2023-04-24T11:32:17;6.25;;;2.03;;
40122;SDS011;25832;45.490;4.912;2023-04-24T11:37:41;6.00;;;1.90;;
40122;SDS011;25832;45.490;4.912;2023-04-24T11:40:09;1.60;;;1.50;;
40122;SDS011;25832;45.490;4.912;2023-04-24T11:42:37;4.70;;;1.55;;
40122;SDS011;25832;45.490;4.912;2023-04-24T11:45:22;3.78;;;1.65;;
40122;SDS011;25832;45.490;4.912;2023-04-24T11:47:49;7.07;;;1.95;;
40122;SDS011;25832;45.490;4.912;2023-04-24T11:50:16;3.67;;;1.90;;
40122;SDS011;25832;45.490;4.912;2023-04-24T11:52:44;2.30;;;1.50;;
40122;SDS011;25832;45.490;4.912;2023-04-24T11:57:39;2.60;;;1.83;;
40122;SDS011;25832;45.490;4.912;2023-04-24T12:00:14;4.53;;;2.97;;
40122;SDS011;25832;45.490;4.912;2023-04-24T12:02:44;7.45;;;2.55;;
40122;SDS011;25832;45.490;4.912;2023-04-24T12:08:05;4.50;;;2.05;;
40122;SDS011;25832;45.490;4.912;2023-04-24T12:10:31;2.00;;;1.48;;
40122;SDS011;25832;45.490;4.912;2023-04-24T12:12:58;2.67;;;1.70;;
40122;SDS011;25832;45.490;4.912;2023-04-24T12:15:25;5.95;;;1.90;;
40122;SDS011;25832;45.490;4.912;2023-04-24T12:17:51;6.35;;;2.17;;
40122;SDS011;25832;45.490;4.912;2023-04-24T12:20:22;6.57;;;2.38;;
40122;SDS011;25832;45.490;4.912;2023-04-24T12:22:51;5.70;;;2.75;;
40122;SDS011;25832;45.490;4.912;2023-04-24T12:25:24;4.63;;;1.73;;
40122;SDS011;25832;45.490;4.912;2023-04-24T12:30:29;4.88;;;2.38;;
40122;SDS011;25832;45.490;4.912;2023-04-24T12:32:58;7.65;;;3.55;;
40122;SDS011;25832;45.490;4.912;2023-04-24T12:35:26;3.88;;;1.88;;
40122;SDS011;25832;45.490;4.912;2023-04-24T12:37:53;7.32;;;2.10;;
40122;SDS011;25832;45.490;4.912;2023-04-24T12:40:19;2.85;;;2.00;;
40122;SDS011;25832;45.490;4.912;2023-04-24T12:42:50;3.58;;;2.40;;
40122;SDS011;25832;45.490;4.912;2023-04-24T12:45:17;6.82;;;1.75;;
40122;SDS011;25832;45.490;4.912;2023-04-24T12:47:44;5.25;;;1.90;;
40122;SDS011;25832;45.490;4.912;2023-04-24T12:50:12;6.05;;;2.20;;
40122;SDS011;25832;45.490;4.912;2023-04-24T12:52:40;2.35;;;1.70;;
40122;SDS011;25832;45.490;4.912;2023-04-24T12:55:06;4.32;;;2.00;;
40122;SDS011;25832;45.490;4.912;2023-04-24T12:57:33;2.72;;;1.50;;
40122;SDS011;25832;45.490;4.912;2023-04-24T13:00:00;2.53;;;1.73;;
40122;SDS011;25832;45.490;4.912;2023-04-24T13:02:27;3.65;;;1.92;;
40122;SDS011;25832;45.490;4.912;2023-04-24T13:04:55;2.83;;;1.60;;
40122;SDS011;25832;45.490;4.912;2023-04-24T13:07:22;3.30;;;1.90;;
40122;SDS011;25832;45.490;4.912;2023-04-24T13:09:48;4.80;;;2.03;;
40122;SDS011;25832;45.490;4.912;2023-04-24T13:12:15;5.13;;;1.85;;
40122;SDS011;25832;45.490;4.912;2023-04-24T13:14:42;2.60;;;1.70;;
40122;SDS011;25832;45.490;4.912;2023-04-24T13:17:07;4.80;;;1.80;;
40122;SDS011;25832;45.490;4.912;2023-04-24T13:19:37;3.65;;;2.03;;
40122;SDS011;25832;45.490;4.912;2023-04-24T13:22:08;3.17;;;1.50;;
40122;SDS011;25832;45.490;4.912;2023-04-24T13:24:34;5.43;;;2.00;;
40122;SDS011;25832;45.490;4.912;2023-04-24T13:27:00;3.55;;;1.50;;
40122;SDS011;25832;45.490;4.912;2023-04-24T13:29:27;2.88;;;1.77;;
40122;SDS011;25832;45.490;4.912;2023-04-24T13:31:53;3.72;;;1.85;;
40122;SDS011;25832;45.490;4.912;2023-04-24T13:34:23;3.08;;;2.00;;
40122;SDS011;25832;45.490;4.912;2023-04-24T13:36:50;5.22;;;1.55;;
40122;SDS011;25832;45.490;4.912;2023-04-24T13:41:46;4.57;;;1.70;;
40122;SDS011;25832;45.490;4.912;2023-04-24T13:44:13;4.53;;;1.65;;
40122;SDS011;25832;45.490;4.912;2023-04-24T13:46:40;4.57;;;2.08;;
40122;SDS011;25832;45.490;4.912;2023-04-24T13:49:06;3.15;;;1.77;;
40122;SDS011;25832;45.490;4.912;2023-04-24T13:51:32;3.08;;;1.30;;
40122;SDS011;25832;45.490;4.912;2023-04-24T13:53:57;5.07;;;1.63;;
40122;SDS011;25832;45.490;4.912;2023-04-24T13:56:24;1.50;;;1.33;;
40122;SDS011;25832;45.490;4.912;2023-04-24T13:58:50;3.60;;;2.15;;
40122;SDS011;25832;45.490;4.912;2023-04-24T14:01:16;2.55;;;1.52;;
40122;SDS011;25832;45.490;4.912;2023-04-24T14:03:42;11.30;;;1.95;;
40122;SDS011;25832;45.490;4.912;2023-04-24T14:06:10;3.92;;;1.83;;
40122;SDS011;25832;45.490;4.912;2023-04-24T14:08:36;4.25;;;1.60;;
40122;SDS011;25832;45.490;4.912;2023-04-24T14:11:02;4.20;;;1.40;;
40122;SDS011;25832;45.490;4.912;2023-04-24T14:13:27;4.88;;;1.65;;
40122;SDS011;25832;45.490;4.912;2023-04-24T14:15:53;2.28;;;1.70;;
40122;SDS011;25832;45.490;4.912;2023-04-24T14:18:19;5.40;;;1.92;;
40122;SDS011;25832;45.490;4.912;2023-04-24T14:20:45;3.50;;;1.77;;
40122;SDS011;25832;45.490;4.912;2023-04-24T14:23:11;2.90;;;1.35;;
40122;SDS011;25832;45.490;4.912;2023-04-24T14:25:36;2.42;;;1.45;;
40122;SDS011;25832;45.490;4.912;2023-04-24T14:28:02;3.88;;;1.70;;
40122;SDS011;25832;45.490;4.912;2023-04-24T14:30:28;4.65;;;2.50;;
40122;SDS011;25832;45.490;4.912;2023-04-24T14:32:54;4.80;;;1.70;;
40122;SDS011;25832;45.490;4.912;2023-04-24T14:35:19;5.90;;;1.73;;
40122;SDS011;25832;45.490;4.912;2023-04-24T14:37:45;4.63;;;2.13;;
40122;SDS011;25832;45.490;4.912;2023-04-24T14:40:11;13.45;;;3.60;;
40122;SDS011;25832;45.490;4.912;2023-04-24T14:42:36;2.50;;;1.48;;
40122;SDS011;25832;45.490;4.912;2023-04-24T14:45:02;7.40;;;2.25;;
40122;SDS011;25832;45.490;4.912;2023-04-24T14:47:28;4.25;;;2.95;;
40122;SDS011;25832;45.490;4.912;2023-04-24T14:49:54;3.95;;;1.70;;
40122;SDS011;25832;45.490;4.912;2023-04-24T14:52:20;4.63;;;2.35;;
40122;SDS011;25832;45.490;4.912;2023-04-24T14:54:46;3.75;;;2.13;;
40122;SDS011;25832;45.490;4.912;2023-04-24T14:57:11;8.50;;;2.22;;
40122;SDS011;25832;45.490;4.912;2023-04-24T14:59:37;4.70;;;2.28;;
40122;SDS011;25832;45.490;4.912;2023-04-24T15:02:03;6.07;;;2.17;;
40122;SDS011;25832;45.490;4.912;2023-04-24T15:04:29;4.00;;;1.80;;
40122;SDS011;25832;45.490;4.912;2023-04-24T15:06:56;4.20;;;2.53;;
40122;SDS011;25832;45.490;4.912;2023-04-24T15:09:22;3.67;;;1.80;;
40122;SDS011;25832;45.490;4.912;2023-04-24T15:11:49;5.60;;;1.80;;